createdAt,value
2018-07-06T00:00:13.480Z,8.00
2018-07-06T00:01:13.481Z,8.00
2018-07-06T00:02:13.494Z,4.00
2018-07-06T00:03:14.295Z,4.00
2018-07-06T00:04:13.566Z,4.00
2018-07-06T00:05:13.495Z,8.00
2018-07-06T00:06:13.499Z,4.00
2018-07-06T00:07:13.499Z,4.00
2018-07-06T00:08:13.504Z,4.00
2018-07-06T00:09:13.509Z,4.00
2018-07-06T00:10:13.512Z,4.00
2018-07-06T00:11:13.522Z,4.00
2018-07-06T00:12:13.518Z,4.00
2018-07-06T00:13:13.576Z,4.00
2018-07-06T00:14:13.523Z,8.00
2018-07-06T00:15:13.537Z,4.00
2018-07-06T00:16:13.530Z,4.00
2018-07-06T00:17:13.534Z,4.00
2018-07-06T00:18:13.540Z,4.00
2018-07-06T00:19:13.544Z,4.00
2018-07-06T00:20:13.550Z,4.00
2018-07-06T00:21:13.546Z,4.00
2018-07-06T00:22:13.552Z,4.00
2018-07-06T00:23:13.680Z,4.00
2018-07-06T00:24:14.333Z,4.00
2018-07-06T00:25:14.334Z,4.00
2018-07-06T00:26:13.685Z,4.00
2018-07-06T00:27:13.744Z,4.00
2018-07-06T00:28:14.340Z,4.00
2018-07-06T00:29:13.668Z,4.00
2018-07-06T00:30:13.737Z,4.00
2018-07-06T00:31:13.652Z,4.00
2018-07-06T00:32:13.698Z,4.00
2018-07-06T00:33:13.588Z,4.00
2018-07-06T00:34:13.591Z,4.00
2018-07-06T00:35:13.594Z,8.00
2018-07-06T00:36:13.600Z,4.00
2018-07-06T00:37:13.602Z,4.00
2018-07-06T00:38:13.618Z,4.00
2018-07-06T00:39:13.609Z,4.00
2018-07-06T00:40:13.614Z,4.00
2018-07-06T00:41:13.619Z,4.00
2018-07-06T00:42:13.620Z,4.00
2018-07-06T00:43:13.620Z,4.00
2018-07-06T00:44:13.626Z,4.00
2018-07-06T00:45:13.629Z,4.00
2018-07-06T00:46:13.633Z,4.00
2018-07-06T00:47:13.637Z,4.00
2018-07-06T00:48:13.645Z,4.00
2018-07-06T00:49:13.655Z,4.00
2018-07-06T00:50:13.646Z,4.00
2018-07-06T00:51:13.648Z,4.00
2018-07-06T00:52:13.653Z,4.00
2018-07-06T00:53:13.659Z,4.00
2018-07-06T00:54:13.663Z,4.00
2018-07-06T00:55:13.666Z,4.00
2018-07-06T00:56:13.667Z,4.00
2018-07-06T00:57:13.670Z,4.00
2018-07-06T00:58:13.674Z,4.00
2018-07-06T00:59:13.676Z,4.00
2018-07-06T01:00:13.683Z,4.00
2018-07-06T01:01:13.686Z,4.00
2018-07-06T01:02:13.687Z,4.00
2018-07-06T01:03:13.691Z,4.00
2018-07-06T01:04:13.695Z,4.00
2018-07-06T01:05:13.698Z,4.00
2018-07-06T01:06:13.709Z,4.00
2018-07-06T01:07:13.712Z,4.00
2018-07-06T01:08:13.710Z,4.00
2018-07-06T01:09:13.711Z,4.00
2018-07-06T01:10:13.744Z,4.00
2018-07-06T01:11:13.718Z,4.00
2018-07-06T01:12:13.723Z,4.00
2018-07-06T01:13:13.726Z,4.00
2018-07-06T01:14:13.729Z,4.00
2018-07-06T01:15:13.730Z,4.00
2018-07-06T01:16:13.735Z,4.00
2018-07-06T01:17:13.748Z,4.00
2018-07-06T01:18:13.742Z,4.00
2018-07-06T01:19:13.751Z,4.00
2018-07-06T01:20:13.751Z,4.00
2018-07-06T01:21:13.752Z,4.00
2018-07-06T01:22:13.756Z,4.00
2018-07-06T01:23:13.759Z,4.00
2018-07-06T01:24:13.763Z,4.00
2018-07-06T01:25:14.889Z,4.00
2018-07-06T01:26:14.889Z,4.00
2018-07-06T01:27:14.402Z,4.00
2018-07-06T01:28:14.384Z,4.00
2018-07-06T01:29:13.909Z,4.00
2018-07-06T01:30:14.377Z,4.00
2018-07-06T01:31:13.822Z,4.00
2018-07-06T01:32:14.883Z,4.00
2018-07-06T01:33:14.348Z,4.00
2018-07-06T01:34:13.895Z,4.00
2018-07-06T01:35:14.913Z,4.00
2018-07-06T01:36:13.833Z,4.00
2018-07-06T01:37:14.876Z,4.00
2018-07-06T01:38:14.837Z,4.00
2018-07-06T01:39:13.839Z,4.00
2018-07-06T01:40:13.925Z,4.00
2018-07-06T01:41:14.854Z,4.00
2018-07-06T01:42:14.874Z,4.00
2018-07-06T01:43:15.345Z,4.00
2018-07-06T01:44:13.825Z,4.00
2018-07-06T01:45:13.827Z,4.00
2018-07-06T01:46:14.529Z,4.00
2018-07-06T01:47:13.834Z,4.00
2018-07-06T01:48:13.836Z,4.00
2018-07-06T01:49:13.841Z,4.00
2018-07-06T01:50:13.845Z,4.00
2018-07-06T01:51:13.843Z,4.00
2018-07-06T01:52:13.846Z,4.00
2018-07-06T01:53:13.850Z,4.00
2018-07-06T01:54:13.852Z,4.00
2018-07-06T01:55:13.856Z,4.00
2018-07-06T01:56:13.860Z,4.00
2018-07-06T01:57:13.860Z,4.00
2018-07-06T01:58:13.864Z,4.00
2018-07-06T01:59:13.867Z,4.00
2018-07-06T02:00:13.868Z,4.00
2018-07-06T02:01:13.871Z,4.00
2018-07-06T02:02:13.874Z,4.00
2018-07-06T02:03:13.880Z,4.00
2018-07-06T02:04:13.879Z,4.00
2018-07-06T02:05:13.882Z,4.00
2018-07-06T02:06:13.887Z,4.00
2018-07-06T02:07:13.886Z,4.00
2018-07-06T02:08:13.892Z,4.00
2018-07-06T02:09:13.893Z,4.00
2018-07-06T02:10:13.898Z,4.00
2018-07-06T02:11:13.897Z,4.00
2018-07-06T02:12:13.899Z,4.00
2018-07-06T02:13:13.907Z,4.00
2018-07-06T02:14:13.909Z,4.00
2018-07-06T02:15:13.926Z,4.00
2018-07-06T02:16:13.920Z,4.00
2018-07-06T02:17:13.917Z,4.00
2018-07-06T02:18:13.917Z,8.00
2018-07-06T02:19:13.926Z,8.00
2018-07-06T02:20:13.924Z,4.00
2018-07-06T02:21:13.929Z,8.00
2018-07-06T02:22:13.928Z,4.00
2018-07-06T02:23:13.931Z,8.00
2018-07-06T02:24:13.942Z,8.00
2018-07-06T02:25:13.940Z,8.00
2018-07-06T02:26:13.940Z,8.00
2018-07-06T02:27:13.946Z,8.00
2018-07-06T02:28:13.945Z,8.00
2018-07-06T02:29:13.952Z,8.00
2018-07-06T02:30:13.952Z,8.00
2018-07-06T02:31:13.962Z,8.00
2018-07-06T02:32:13.958Z,8.00
2018-07-06T02:33:13.959Z,8.00
2018-07-06T02:34:13.963Z,8.00
2018-07-06T02:35:13.966Z,8.00
2018-07-06T02:36:13.972Z,8.00
2018-07-06T02:37:13.972Z,4.00
2018-07-06T02:38:13.982Z,4.00
2018-07-06T02:39:13.979Z,4.00
2018-07-06T02:40:13.982Z,8.00
2018-07-06T02:41:13.989Z,8.00
2018-07-06T02:42:14.000Z,8.00
2018-07-06T02:43:14.000Z,8.00
2018-07-06T02:44:13.996Z,8.00
2018-07-06T02:45:13.995Z,8.00
2018-07-06T02:46:13.999Z,8.00
2018-07-06T02:47:14.001Z,8.00
2018-07-06T02:48:14.002Z,8.00
2018-07-06T02:49:14.008Z,8.00
2018-07-06T02:50:14.008Z,12.00
2018-07-06T02:51:14.011Z,8.00
2018-07-06T02:52:14.014Z,12.00
2018-07-06T02:53:14.018Z,8.00
2018-07-06T02:54:14.019Z,12.00
2018-07-06T02:55:14.075Z,8.00
2018-07-06T02:56:14.024Z,12.00
2018-07-06T02:57:14.028Z,12.00
2018-07-06T02:58:14.029Z,8.00
2018-07-06T02:59:14.036Z,8.00
2018-07-06T03:00:14.035Z,12.00
2018-07-06T03:01:14.038Z,16.00
2018-07-06T03:02:14.049Z,12.00
2018-07-06T03:03:14.044Z,16.00
2018-07-06T03:04:14.044Z,20.00
2018-07-06T03:05:14.049Z,20.00
2018-07-06T03:06:14.052Z,20.00
2018-07-06T03:07:14.053Z,24.00
2018-07-06T03:08:14.057Z,24.00
2018-07-06T03:09:14.060Z,28.00
2018-07-06T03:10:14.065Z,32.00
2018-07-06T03:11:14.063Z,32.00
2018-07-06T03:12:14.070Z,36.00
2018-07-06T03:13:14.071Z,40.00
2018-07-06T03:14:14.111Z,44.00
2018-07-06T03:15:14.078Z,44.00
2018-07-06T03:16:14.077Z,52.00
2018-07-06T03:17:14.085Z,52.00
2018-07-06T03:18:35.096Z,56.00
2018-07-06T03:19:14.086Z,60.00
2018-07-06T03:20:14.090Z,60.00
2018-07-06T03:21:14.093Z,64.00
2018-07-06T03:22:14.094Z,68.00
2018-07-06T03:23:14.096Z,72.00
2018-07-06T03:24:14.099Z,72.00
2018-07-06T03:25:14.103Z,76.00
2018-07-06T03:26:14.145Z,80.00
2018-07-06T03:27:14.107Z,80.00
2018-07-06T03:28:14.126Z,84.00
2018-07-06T03:29:14.113Z,88.00
2018-07-06T03:30:14.116Z,92.00
2018-07-06T03:31:14.127Z,100.00
2018-07-06T03:32:14.123Z,100.00
2018-07-06T03:33:14.123Z,108.00
2018-07-06T03:34:14.131Z,116.00
2018-07-06T03:35:14.131Z,124.00
2018-07-06T03:36:14.136Z,128.00
2018-07-06T03:37:14.136Z,136.00
2018-07-06T03:38:14.136Z,144.00
2018-07-06T03:39:14.138Z,152.00
2018-07-06T03:40:14.142Z,160.00
2018-07-06T03:41:14.158Z,168.00
2018-07-06T03:42:14.150Z,176.00
2018-07-06T03:43:14.149Z,188.00
2018-07-06T03:44:14.152Z,196.00
2018-07-06T03:45:14.157Z,204.00
2018-07-06T03:46:14.159Z,212.00
2018-07-06T03:47:14.160Z,216.00
2018-07-06T03:48:14.163Z,224.00
2018-07-06T03:49:14.166Z,236.00
2018-07-06T03:50:14.169Z,252.00
2018-07-06T03:51:14.171Z,264.00
2018-07-06T03:52:14.175Z,284.00
2018-07-06T03:53:14.177Z,304.00
2018-07-06T03:54:14.178Z,320.00
2018-07-06T03:55:14.180Z,336.00
2018-07-06T03:56:14.190Z,348.00
2018-07-06T03:57:14.186Z,360.00
2018-07-06T03:58:14.188Z,372.00
2018-07-06T03:59:14.189Z,376.00
2018-07-06T04:00:14.191Z,384.00
2018-07-06T04:01:14.198Z,396.00
2018-07-06T04:02:14.196Z,412.00
2018-07-06T04:03:14.196Z,428.00
2018-07-06T04:04:14.202Z,448.00
2018-07-06T04:05:14.203Z,464.00
2018-07-06T04:06:14.205Z,476.00
2018-07-06T04:07:14.207Z,488.00
2018-07-06T04:08:14.209Z,496.00
2018-07-06T04:09:14.264Z,508.00
2018-07-06T04:10:14.216Z,516.00
2018-07-06T04:11:14.215Z,512.00
2018-07-06T04:12:14.216Z,516.00
2018-07-06T04:13:14.219Z,520.00
2018-07-06T04:14:14.222Z,528.00
2018-07-06T04:15:14.223Z,536.00
2018-07-06T04:16:14.227Z,552.00
2018-07-06T04:17:14.228Z,568.00
2018-07-06T04:18:14.232Z,592.00
2018-07-06T04:19:14.232Z,608.00
2018-07-06T04:20:14.233Z,620.00
2018-07-06T04:21:14.239Z,624.00
2018-07-06T04:22:14.240Z,624.00
2018-07-06T04:23:14.239Z,632.00
2018-07-06T04:24:14.241Z,648.00
2018-07-06T04:25:14.245Z,664.00
2018-07-06T04:26:14.251Z,680.00
2018-07-06T04:27:14.273Z,676.00
2018-07-06T04:28:14.253Z,656.00
2018-07-06T04:29:14.251Z,636.00
2018-07-06T04:30:14.255Z,620.00
2018-07-06T04:31:14.255Z,620.00
2018-07-06T04:32:14.257Z,612.00
2018-07-06T04:33:14.258Z,604.00
2018-07-06T04:34:14.267Z,596.00
2018-07-06T04:35:14.263Z,600.00
2018-07-06T04:36:14.264Z,632.00
2018-07-06T04:37:14.266Z,684.00
2018-07-06T04:38:14.271Z,748.00
2018-07-06T04:39:14.274Z,796.00
2018-07-06T04:40:14.275Z,832.00
2018-07-06T04:41:14.272Z,864.00
2018-07-06T04:42:14.276Z,908.00
2018-07-06T04:43:15.627Z,952.00
2018-07-06T04:44:14.329Z,1008.00
2018-07-06T04:45:14.285Z,1068.00
2018-07-06T04:46:14.284Z,1088.00
2018-07-06T04:47:14.287Z,1068.00
2018-07-06T04:48:14.288Z,1036.00
2018-07-06T04:49:14.289Z,1000.00
2018-07-06T04:50:14.290Z,952.00
2018-07-06T04:51:14.291Z,912.00
2018-07-06T04:52:14.295Z,860.00
2018-07-06T04:53:14.354Z,832.00
2018-07-06T04:54:14.300Z,824.00
2018-07-06T04:55:14.299Z,824.00
2018-07-06T04:56:14.307Z,860.00
2018-07-06T04:57:15.588Z,896.00
2018-07-06T04:58:14.305Z,912.00
2018-07-06T04:59:14.363Z,900.00
2018-07-06T05:00:14.308Z,884.00
2018-07-06T05:01:14.311Z,868.00
2018-07-06T05:02:14.314Z,856.00
2018-07-06T05:03:14.322Z,852.00
2018-07-06T05:04:14.320Z,852.00
2018-07-06T05:05:14.320Z,848.00
2018-07-06T05:06:14.321Z,852.00
2018-07-06T05:07:14.323Z,852.00
2018-07-06T05:08:14.326Z,852.00
2018-07-06T05:09:14.334Z,856.00
2018-07-06T05:10:14.330Z,852.00
2018-07-06T05:11:14.329Z,852.00
2018-07-06T05:12:14.335Z,868.00
2018-07-06T05:13:14.337Z,896.00
2018-07-06T05:14:14.336Z,940.00
2018-07-06T05:15:14.338Z,1000.00
2018-07-06T05:16:14.344Z,1084.00
2018-07-06T05:17:14.342Z,1192.00
2018-07-06T05:18:14.345Z,1300.00
2018-07-06T05:19:14.348Z,1496.00
2018-07-06T05:20:14.355Z,1608.00
2018-07-06T05:21:14.352Z,1800.00
2018-07-06T05:22:14.353Z,2268.00
2018-07-06T05:23:14.355Z,1816.00
2018-07-06T05:24:14.357Z,2040.00
2018-07-06T05:25:14.361Z,2020.00
2018-07-06T05:26:14.361Z,1744.00
2018-07-06T05:27:14.363Z,1700.00
2018-07-06T05:28:14.365Z,1708.00
2018-07-06T05:29:14.368Z,1732.00
2018-07-06T05:30:14.371Z,1752.00
2018-07-06T05:31:14.370Z,1772.00
2018-07-06T05:32:14.374Z,1792.00
2018-07-06T05:33:14.374Z,1808.00
2018-07-06T05:34:14.381Z,1812.00
2018-07-06T05:35:14.380Z,1796.00
2018-07-06T05:36:14.381Z,1732.00
2018-07-06T05:37:14.383Z,1620.00
2018-07-06T05:38:14.386Z,1516.00
2018-07-06T05:39:14.389Z,1412.00
2018-07-06T05:40:14.390Z,1320.00
2018-07-06T05:41:14.393Z,1228.00
2018-07-06T05:42:14.395Z,1156.00
2018-07-06T05:43:14.397Z,1100.00
2018-07-06T05:44:14.398Z,1036.00
2018-07-06T05:45:14.400Z,968.00
2018-07-06T05:46:14.406Z,924.00
2018-07-06T05:47:14.403Z,900.00
2018-07-06T05:48:14.406Z,888.00
2018-07-06T05:49:14.409Z,904.00
2018-07-06T05:50:14.410Z,928.00
2018-07-06T05:51:14.416Z,968.00
2018-07-06T05:52:14.415Z,1004.00
2018-07-06T05:53:14.418Z,1064.00
2018-07-06T05:54:14.418Z,1152.00
2018-07-06T05:55:14.420Z,1280.00
2018-07-06T05:56:14.438Z,1428.00
2018-07-06T05:57:14.423Z,1584.00
2018-07-06T05:58:14.431Z,1816.00
2018-07-06T05:59:14.454Z,2088.00
2018-07-06T06:00:14.429Z,2308.00
2018-07-06T06:01:14.431Z,2456.00
2018-07-06T06:02:14.436Z,2572.00
2018-07-06T06:03:14.437Z,2644.00
2018-07-06T06:04:14.437Z,2696.00
2018-07-06T06:05:14.439Z,2740.00
2018-07-06T06:06:14.443Z,2788.00
2018-07-06T06:07:14.446Z,2848.00
2018-07-06T06:08:14.450Z,2928.00
2018-07-06T06:09:14.449Z,3008.00
2018-07-06T06:10:14.450Z,3100.00
2018-07-06T06:11:14.451Z,3124.00
2018-07-06T06:12:14.509Z,3168.00
2018-07-06T06:13:14.456Z,3180.00
2018-07-06T06:14:14.460Z,3172.00
2018-07-06T06:15:14.459Z,3100.00
2018-07-06T06:16:14.462Z,3024.00
2018-07-06T06:17:14.466Z,2900.00
2018-07-06T06:18:14.466Z,2816.00
2018-07-06T06:19:14.468Z,2852.00
2018-07-06T06:20:14.470Z,3180.00
2018-07-06T06:21:14.472Z,3124.00
2018-07-06T06:22:14.476Z,3152.00
2018-07-06T06:23:14.480Z,3164.00
2018-07-06T06:24:14.480Z,3196.00
2018-07-06T06:25:14.483Z,3144.00
2018-07-06T06:26:14.485Z,3012.00
2018-07-06T06:27:14.488Z,2884.00
2018-07-06T06:28:14.489Z,2936.00
2018-07-06T06:29:14.491Z,3064.00
2018-07-06T06:30:14.495Z,3048.00
2018-07-06T06:31:14.496Z,2980.00
2018-07-06T06:32:14.511Z,2792.00
2018-07-06T06:33:14.576Z,2576.00
2018-07-06T06:34:14.505Z,2492.00
2018-07-06T06:35:14.515Z,2468.00
2018-07-06T06:36:14.509Z,2448.00
2018-07-06T06:37:14.516Z,2460.00
2018-07-06T06:38:14.518Z,2500.00
2018-07-06T06:39:14.516Z,2648.00
2018-07-06T06:40:14.520Z,3168.00
2018-07-06T06:41:14.521Z,3308.00
2018-07-06T06:42:14.524Z,3444.00
2018-07-06T06:43:14.525Z,3512.00
2018-07-06T06:44:14.527Z,3648.00
2018-07-06T06:45:14.532Z,3904.00
2018-07-06T06:46:14.538Z,4348.00
2018-07-06T06:47:14.535Z,5148.00
2018-07-06T06:48:14.543Z,4320.00
2018-07-06T06:49:14.541Z,3732.00
2018-07-06T06:50:14.545Z,3652.00
2018-07-06T06:51:14.544Z,3824.00
2018-07-06T06:52:14.567Z,4036.00
2018-07-06T06:53:14.551Z,4128.00
2018-07-06T06:54:14.552Z,4164.00
2018-07-06T06:55:14.554Z,4116.00
2018-07-06T06:56:14.557Z,3920.00
2018-07-06T06:57:14.565Z,3704.00
2018-07-06T06:58:14.563Z,3628.00
2018-07-06T06:59:14.565Z,3400.00
2018-07-06T07:00:14.568Z,3096.00
2018-07-06T07:01:14.572Z,2876.00
2018-07-06T07:02:14.574Z,2840.00
2018-07-06T07:03:14.579Z,2880.00
2018-07-06T07:04:14.581Z,2988.00
2018-07-06T07:05:14.584Z,3240.00
2018-07-06T07:06:14.589Z,3520.00
2018-07-06T07:07:14.592Z,3796.00
2018-07-06T07:08:14.596Z,3892.00
2018-07-06T07:09:14.599Z,3784.00
2018-07-06T07:10:14.599Z,3756.00
2018-07-06T07:11:14.600Z,3696.00
2018-07-06T07:12:14.602Z,3556.00
2018-07-06T07:13:14.606Z,3520.00
2018-07-06T07:14:14.669Z,3440.00
2018-07-06T07:15:14.613Z,3500.00
2018-07-06T07:16:14.614Z,3624.00
2018-07-06T07:17:14.621Z,3884.00
2018-07-06T07:18:14.622Z,4224.00
2018-07-06T07:19:14.625Z,4544.00
2018-07-06T07:20:14.627Z,4664.00
2018-07-06T07:21:14.678Z,4684.00
2018-07-06T07:22:14.641Z,4376.00
2018-07-06T07:23:14.637Z,4160.00
2018-07-06T07:24:14.639Z,4132.00
2018-07-06T07:25:14.643Z,4252.00
2018-07-06T07:26:14.646Z,4528.00
2018-07-06T07:27:14.647Z,4812.00
2018-07-06T07:28:14.662Z,5136.00
2018-07-06T07:29:14.655Z,5404.00
2018-07-06T07:30:14.736Z,5252.00
2018-07-06T07:31:14.661Z,4688.00
2018-07-06T07:32:14.663Z,4268.00
2018-07-06T07:33:14.668Z,4260.00
2018-07-06T07:34:14.677Z,4256.00
2018-07-06T07:35:14.683Z,4376.00
2018-07-06T07:36:14.701Z,4452.00
2018-07-06T07:37:14.690Z,4400.00
2018-07-06T07:38:14.722Z,4396.00
2018-07-06T07:39:14.685Z,4380.00
2018-07-06T07:40:14.688Z,4288.00
2018-07-06T07:41:14.698Z,4280.00
2018-07-06T07:42:14.698Z,4308.00
2018-07-06T07:43:14.699Z,4448.00
2018-07-06T07:44:14.937Z,4456.00
2018-07-06T07:45:14.707Z,4360.00
2018-07-06T07:46:14.709Z,4080.00
2018-07-06T07:47:14.713Z,3964.00
2018-07-06T07:48:14.717Z,4096.00
2018-07-06T07:49:14.723Z,4240.00
2018-07-06T07:50:14.724Z,4372.00
2018-07-06T07:51:14.726Z,4432.00
2018-07-06T07:52:14.735Z,4336.00
2018-07-06T07:53:14.732Z,4264.00
2018-07-06T07:54:14.744Z,4164.00
2018-07-06T07:55:14.740Z,4008.00
2018-07-06T07:56:14.744Z,4012.00
2018-07-06T07:57:14.746Z,4044.00
2018-07-06T07:58:14.752Z,3752.00
2018-07-06T07:59:14.753Z,3572.00
2018-07-06T08:00:14.762Z,3344.00
2018-07-06T08:01:14.866Z,3148.00
2018-07-06T08:02:14.765Z,2984.00
2018-07-06T08:03:14.777Z,2896.00
2018-07-06T08:04:14.771Z,2848.00
2018-07-06T08:05:14.773Z,2860.00
2018-07-06T08:06:14.778Z,3052.00
2018-07-06T08:07:14.780Z,3360.00
2018-07-06T08:08:14.787Z,3728.00
2018-07-06T08:09:14.789Z,4096.00
2018-07-06T08:10:14.797Z,4468.00
2018-07-06T08:11:14.795Z,4888.00
2018-07-06T08:12:14.798Z,4508.00
2018-07-06T08:13:14.802Z,3796.00
2018-07-06T08:14:14.808Z,3004.00
2018-07-06T08:15:14.816Z,2628.00
2018-07-06T08:16:14.815Z,2380.00
2018-07-06T08:17:14.817Z,2196.00
2018-07-06T08:18:14.826Z,2112.00
2018-07-06T08:19:14.827Z,2004.00
2018-07-06T08:20:14.831Z,1948.00
2018-07-06T08:21:14.831Z,1944.00
2018-07-06T08:22:14.835Z,2012.00
2018-07-06T08:23:14.841Z,2128.00
2018-07-06T08:24:14.842Z,2176.00
2018-07-06T08:25:14.851Z,2180.00
2018-07-06T08:26:14.855Z,2236.00
2018-07-06T08:27:14.852Z,2352.00
2018-07-06T08:28:14.857Z,2524.00
2018-07-06T08:29:14.859Z,2760.00
2018-07-06T08:30:14.891Z,2904.00
2018-07-06T08:31:14.868Z,2920.00
2018-07-06T08:32:14.867Z,2840.00
2018-07-06T08:33:14.871Z,2980.00
2018-07-06T08:34:14.880Z,3236.00
2018-07-06T08:35:14.881Z,3500.00
2018-07-06T08:36:14.883Z,3776.00
2018-07-06T08:37:14.886Z,4052.00
2018-07-06T08:38:14.887Z,4480.00
2018-07-06T08:39:14.892Z,5040.00
2018-07-06T08:40:14.897Z,6928.00
2018-07-06T08:41:14.909Z,5512.00
2018-07-06T08:42:14.902Z,5040.00
2018-07-06T08:43:14.904Z,4904.00
2018-07-06T08:44:14.909Z,5012.00
2018-07-06T08:45:14.918Z,4664.00
2018-07-06T08:46:14.917Z,4620.00
2018-07-06T08:47:14.920Z,4580.00
2018-07-06T08:48:14.924Z,4020.00
2018-07-06T08:49:14.931Z,3652.00
2018-07-06T08:50:14.982Z,3208.00
2018-07-06T08:51:14.960Z,3072.00
2018-07-06T08:52:14.945Z,3084.00
2018-07-06T08:53:14.946Z,3172.00
2018-07-06T08:54:14.949Z,3260.00
2018-07-06T08:55:14.960Z,3236.00
2018-07-06T08:56:14.988Z,3256.00
2018-07-06T08:57:14.962Z,3188.00
2018-07-06T08:58:14.967Z,3292.00
2018-07-06T08:59:14.980Z,3420.00
2018-07-06T09:00:14.978Z,3412.00
2018-07-06T09:01:14.978Z,3316.00
2018-07-06T09:02:14.984Z,3336.00
2018-07-06T09:03:14.989Z,3468.00
2018-07-06T09:04:15.012Z,3944.00
2018-07-06T09:05:15.002Z,4044.00
2018-07-06T09:06:15.004Z,3800.00
2018-07-06T09:07:15.032Z,3696.00
2018-07-06T09:08:15.037Z,3940.00
2018-07-06T09:09:15.048Z,3796.00
2018-07-06T09:10:15.019Z,4340.00
2018-07-06T09:11:15.023Z,4744.00
2018-07-06T09:12:15.024Z,5056.00
2018-07-06T09:13:15.031Z,5184.00
2018-07-06T09:14:15.039Z,5320.00
2018-07-06T09:15:15.039Z,5520.00
2018-07-06T09:16:15.055Z,6564.00
2018-07-06T09:17:15.046Z,5248.00
2018-07-06T09:18:15.053Z,4616.00
2018-07-06T09:19:15.106Z,4296.00
2018-07-06T09:20:15.187Z,4408.00
2018-07-06T09:21:15.069Z,4656.00
2018-07-06T09:22:15.070Z,5732.00
2018-07-06T09:23:15.079Z,8472.00
2018-07-06T09:24:15.125Z,5096.00
2018-07-06T09:25:15.113Z,4696.00
2018-07-06T09:26:15.207Z,4464.00
2018-07-06T09:27:15.090Z,4488.00
2018-07-06T09:28:15.095Z,4640.00
2018-07-06T09:29:15.101Z,4792.00
2018-07-06T09:30:15.109Z,4904.00
2018-07-06T09:31:15.114Z,4776.00
2018-07-06T09:32:15.119Z,4896.00
2018-07-06T09:33:15.120Z,5208.00
2018-07-06T09:34:15.125Z,5452.00
2018-07-06T09:35:15.131Z,5604.00
2018-07-06T09:36:15.134Z,5360.00
2018-07-06T09:37:15.142Z,5280.00
2018-07-06T09:38:15.149Z,4876.00
2018-07-06T09:39:15.150Z,5480.00
2018-07-06T09:40:15.159Z,5996.00
2018-07-06T09:41:15.160Z,4548.00
2018-07-06T09:42:15.166Z,4508.00
2018-07-06T09:43:15.211Z,5136.00
2018-07-06T09:44:15.174Z,4628.00
2018-07-06T09:45:15.186Z,4628.00
2018-07-06T09:46:15.185Z,5284.00
2018-07-06T09:47:15.192Z,7292.00
2018-07-06T09:48:15.203Z,5464.00
2018-07-06T09:49:15.201Z,4620.00
2018-07-06T09:50:15.298Z,4704.00
2018-07-06T09:51:15.383Z,4432.00
2018-07-06T09:52:15.215Z,4440.00
2018-07-06T09:53:15.220Z,4592.00
2018-07-06T09:54:15.225Z,4368.00
2018-07-06T09:55:15.231Z,4056.00
2018-07-06T09:56:15.235Z,3948.00
2018-07-06T09:57:15.241Z,3976.00
2018-07-06T09:58:15.246Z,4264.00
2018-07-06T09:59:15.274Z,4708.00
2018-07-06T10:00:15.256Z,5224.00
2018-07-06T10:01:15.261Z,5728.00
2018-07-06T10:02:15.294Z,5780.00
2018-07-06T10:03:15.273Z,5516.00
2018-07-06T10:04:15.298Z,5448.00
2018-07-06T10:05:15.281Z,5608.00
2018-07-06T10:06:15.290Z,7724.00
2018-07-06T10:07:15.290Z,6064.00
2018-07-06T10:08:15.296Z,7420.00
2018-07-06T10:09:15.304Z,6068.00
2018-07-06T10:10:15.377Z,4168.00
2018-07-06T10:11:15.310Z,3820.00
2018-07-06T10:12:15.314Z,3592.00
2018-07-06T10:13:15.320Z,3480.00
2018-07-06T10:14:15.325Z,3524.00
2018-07-06T10:15:15.332Z,3684.00
2018-07-06T10:16:15.369Z,3860.00
2018-07-06T10:17:15.612Z,3948.00
2018-07-06T10:18:15.346Z,4216.00
2018-07-06T10:19:15.354Z,4692.00
2018-07-06T10:20:15.357Z,5508.00
2018-07-06T10:21:15.360Z,9180.00
2018-07-06T10:22:15.371Z,12936.00
2018-07-06T10:23:15.371Z,7212.00
2018-07-06T10:24:15.376Z,8668.00
2018-07-06T10:25:15.387Z,7072.00
2018-07-06T10:26:15.389Z,9680.00
2018-07-06T10:27:15.393Z,23968.00
2018-07-06T10:28:15.491Z,5412.00
2018-07-06T10:29:15.447Z,5328.00
2018-07-06T10:30:15.447Z,4296.00
2018-07-06T10:31:15.429Z,4116.00
2018-07-06T10:32:15.446Z,4220.00
2018-07-06T10:33:16.126Z,5356.00
2018-07-06T10:34:15.522Z,6424.00
2018-07-06T10:35:15.509Z,5148.00
2018-07-06T10:36:15.441Z,5072.00
2018-07-06T10:37:15.499Z,6640.00
2018-07-06T10:38:15.495Z,5748.00
2018-07-06T10:39:15.620Z,8772.00
2018-07-06T10:40:15.464Z,5288.00
2018-07-06T10:41:15.498Z,5168.00
2018-07-06T10:42:15.472Z,13548.00
2018-07-06T10:43:15.480Z,8336.00
2018-07-06T10:44:15.485Z,5064.00
2018-07-06T10:45:15.488Z,4828.00
2018-07-06T10:46:15.496Z,4584.00
2018-07-06T10:47:15.650Z,4772.00
2018-07-06T10:48:15.505Z,5524.00
2018-07-06T10:49:15.533Z,4696.00
2018-07-06T10:50:15.523Z,4536.00
2018-07-06T10:51:15.521Z,4876.00
2018-07-06T10:52:15.572Z,5596.00
2018-07-06T10:53:15.536Z,12840.00
2018-07-06T10:54:15.540Z,32288.00
2018-07-06T10:55:15.544Z,10200.00
2018-07-06T10:56:15.551Z,6840.00
2018-07-06T10:57:15.557Z,6288.00
2018-07-06T10:58:15.563Z,6044.00
2018-07-06T10:59:15.601Z,6364.00
2018-07-06T11:00:15.575Z,6048.00
2018-07-06T11:01:15.583Z,5808.00
2018-07-06T11:02:15.589Z,7140.00
2018-07-06T11:03:15.594Z,19008.00
2018-07-06T11:04:15.599Z,6512.00
2018-07-06T11:05:15.609Z,4956.00
2018-07-06T11:06:15.613Z,4704.00
2018-07-06T11:07:15.621Z,4596.00
2018-07-06T11:08:15.625Z,4400.00
2018-07-06T11:09:15.636Z,4384.00
2018-07-06T11:10:15.638Z,6260.00
2018-07-06T11:11:15.645Z,5328.00
2018-07-06T11:12:15.652Z,6788.00
2018-07-06T11:13:15.659Z,10900.00
2018-07-06T11:14:15.666Z,6720.00
2018-07-06T11:15:15.680Z,17632.00
2018-07-06T11:16:15.675Z,7420.00
2018-07-06T11:17:15.682Z,7192.00
2018-07-06T11:18:15.687Z,6036.00
2018-07-06T11:19:15.694Z,6380.00
2018-07-06T11:20:15.705Z,10408.00
2018-07-06T11:21:15.707Z,6224.00
2018-07-06T11:22:15.714Z,13524.00
2018-07-06T11:23:15.716Z,14664.00
2018-07-06T11:24:15.726Z,20064.00
2018-07-06T11:25:15.758Z,9424.00
2018-07-06T11:26:15.739Z,17088.00
2018-07-06T11:27:15.747Z,5288.00
2018-07-06T11:28:15.765Z,4788.00
2018-07-06T11:29:15.786Z,4292.00
2018-07-06T11:30:15.767Z,4104.00
2018-07-06T11:31:15.769Z,3544.00
2018-07-06T11:32:15.802Z,3324.00
2018-07-06T11:33:15.785Z,3352.00
2018-07-06T11:34:15.791Z,3352.00
2018-07-06T11:35:15.795Z,3432.00
2018-07-06T11:36:15.801Z,3648.00
2018-07-06T11:37:15.810Z,3848.00
2018-07-06T11:38:15.943Z,3924.00
2018-07-06T11:39:15.826Z,4248.00
2018-07-06T11:40:15.829Z,5008.00
2018-07-06T11:41:15.833Z,5552.00
2018-07-06T11:42:15.841Z,4248.00
2018-07-06T11:43:15.852Z,3896.00
2018-07-06T11:44:15.864Z,3988.00
2018-07-06T11:45:15.956Z,4144.00
2018-07-06T11:46:15.865Z,5012.00
2018-07-06T11:47:15.874Z,4764.00
2018-07-06T11:48:15.878Z,4960.00
2018-07-06T11:49:15.885Z,5224.00
2018-07-06T11:50:15.918Z,5348.00
2018-07-06T11:51:15.895Z,5460.00
2018-07-06T11:52:15.901Z,5596.00
2018-07-06T11:53:15.905Z,5796.00
2018-07-06T11:54:15.911Z,6460.00
2018-07-06T11:55:15.917Z,10192.00
2018-07-06T11:56:15.926Z,14500.00
2018-07-06T11:57:15.933Z,17888.00
2018-07-06T11:58:15.963Z,30592.00
2018-07-06T11:59:15.950Z,11616.00
2018-07-06T12:00:15.948Z,8020.00
2018-07-06T12:01:15.959Z,10376.00
2018-07-06T12:02:15.960Z,6868.00
2018-07-06T12:03:15.968Z,7744.00
2018-07-06T12:04:15.998Z,8828.00
2018-07-06T12:05:15.984Z,5740.00
2018-07-06T12:06:15.989Z,4876.00
2018-07-06T12:07:15.994Z,4824.00
2018-07-06T12:08:16.007Z,5092.00
2018-07-06T12:09:16.069Z,5532.00
2018-07-06T12:10:16.015Z,6824.00
2018-07-06T12:11:16.028Z,50144.00
2018-07-06T12:12:16.048Z,6388.00
2018-07-06T12:13:16.036Z,5332.00
2018-07-06T12:14:16.050Z,4836.00
2018-07-06T12:15:16.051Z,4276.00
2018-07-06T12:16:16.165Z,3712.00
2018-07-06T12:17:16.064Z,3424.00
2018-07-06T12:18:16.071Z,3536.00
2018-07-06T12:19:16.079Z,4076.00
2018-07-06T12:20:16.083Z,10920.00
2018-07-06T12:21:16.178Z,26272.00
2018-07-06T12:22:16.099Z,8024.00
2018-07-06T12:23:16.110Z,8108.00
2018-07-06T12:24:16.110Z,8884.00
2018-07-06T12:25:16.119Z,9504.00
2018-07-06T12:26:16.213Z,4760.00